Time;durP1;ratioP1;P1;durP2;ratioP2;P2;SDS_P1;SDS_P2;PMS_P1;PMS_P2;Temp;Humidity;BMP_temperature;BMP_pressure;BME280_temperature;BME280_humidity;BME280_pressure;Samples;Min_cycle;Max_cycle;Signal;HPM_P1;HPM_P2
2024/03/05 00:02:37;;;;;;;77.60;47.90;;;;;;;7.61;100.00;99814.31;182755;1235;58187;-83
2024/03/05 00:06:39;;;;;;;77.50;45.20;;;;;;;7.59;100.00;99812.70;182754;1240;46108;-84
2024/03/05 00:10:41;;;;;;;81.20;49.00;;;;;;;7.58;100.00;99814.21;182771;1239;46742;-84
2024/03/05 00:14:43;;;;;;;80.40;47.60;;;;;;;7.57;100.00;99818.71;182465;1235;46085;-84
2024/03/05 00:18:45;;;;;;;88.30;52.90;;;;;;;7.53;100.00;99818.80;182383;1239;46085;-82
2024/03/05 00:22:48;;;;;;;88.20;51.90;;;;;;;7.52;100.00;99823.11;182605;1238;59995;-83
2024/03/05 00:26:51;;;;;;;87.30;50.40;;;;;;;7.52;100.00;99820.19;182417;1239;46123;-82
2024/03/05 00:30:53;;;;;;;91.70;55.80;;;;;;;7.49;100.00;99820.41;182107;1235;45026;-84
2024/03/05 00:34:55;;;;;;;84.70;50.70;;;;;;;7.46;100.00;99822.22;182216;1235;46151;-85
2024/03/05 00:38:56;;;;;;;81.60;49.10;;;;;;;7.42;100.00;99825.80;182276;1239;46096;-84
2024/03/05 00:42:58;;;;;;;99.50;55.70;;;;;;;7.41;100.00;99823.47;183008;1238;57972;-84
2024/03/05 00:47:00;;;;;;;95.40;51.00;;;;;;;7.40;100.00;99826.35;182357;1235;45715;-84
2024/03/05 00:51:02;;;;;;;104.60;57.50;;;;;;;7.42;100.00;99828.66;182444;1235;44981;-81
2024/03/05 00:55:08;;;;;;;93.10;56.60;;;;;;;7.41;100.00;99830.34;182462;1239;46011;-84
2024/03/05 00:59:11;;;;;;;96.40;55.30;;;;;;;7.34;100.00;99830.14;182607;1240;43907;-83
2024/03/05 01:03:13;;;;;;;96.50;55.60;;;;;;;7.28;100.00;99836.38;182294;1235;58043;-83
2024/03/05 01:07:16;;;;;;;106.80;52.20;;;;;;;7.22;100.00;99837.89;182844;1235;45908;-83
2024/03/05 01:11:18;;;;;;;94.30;55.90;;;;;;;7.17;100.00;99840.02;182700;1235;45986;-84
2024/03/05 01:15:20;;;;;;;88.70;52.20;;;;;;;7.14;100.00;99842.36;182375;1235;46088;-85
2024/03/05 01:19:22;;;;;;;70.70;45.00;;;;;;;7.14;100.00;99839.21;182664;1235;45976;-83
2024/03/05 01:23:24;;;;;;;74.70;47.90;;;;;;;7.14;100.00;99839.77;182525;1235;59793;-82
2024/03/05 01:27:27;;;;;;;83.20;49.20;;;;;;;7.11;100.00;99839.05;182334;1235;45992;-84
2024/03/05 01:31:29;;;;;;;81.10;46.80;;;;;;;7.11;100.00;99836.30;182789;1235;46116;-83
2024/03/05 01:35:31;;;;;;;81.10;49.30;;;;;;;7.13;100.00;99835.94;182450;1239;45132;-84
2024/03/05 01:39:33;;;;;;;89.20;49.90;;;;;;;7.13;100.00;99837.52;182336;1235;46070;-82
2024/03/05 01:43:34;;;;;;;83.60;47.70;;;;;;;7.15;100.00;99838.08;182875;1239;58163;-84
2024/03/05 01:47:36;;;;;;;71.80;45.70;;;;;;;7.15;100.00;99837.89;182482;1239;45959;-83
2024/03/05 01:51:39;;;;;;;66.80;41.70;;;;;;;7.12;100.00;99843.40;182436;1239;46112;-83
2024/03/05 01:55:42;;;;;;;69.20;45.70;;;;;;;7.12;100.00;99843.73;182040;1234;46043;-84
2024/03/05 01:59:44;;;;;;;87.40;48.60;;;;;;;7.09;100.00;99845.71;182891;1235;46031;-84
2024/03/05 02:03:45;;;;;;;79.10;49.20;;;;;;;7.08;100.00;99842.63;182603;1235;58356;-84
2024/03/05 02:07:52;;;;;;;66.20;44.10;;;;;;;7.00;100.00;99844.27;182479;1235;46182;-83
2024/03/05 02:11:54;;;;;;;75.20;47.00;;;;;;;6.97;100.00;99848.91;182485;1240;46019;-85
2024/03/05 02:16:01;;;;;;;67.90;43.20;;;;;;;6.92;100.00;99849.13;183285;1239;45962;-85
2024/03/05 02:20:04;;;;;;;73.70;43.60;;;;;;;6.84;100.00;99849.66;182537;1235;44915;-83
2024/03/05 02:24:06;;;;;;;85.10;47.90;;;;;;;6.81;100.00;99854.48;182165;1235;60074;-84
2024/03/05 02:28:09;;;;;;;69.90;44.50;;;;;;;6.80;100.00;99857.04;182344;1235;46082;-82
2024/03/05 02:32:11;;;;;;;73.30;43.80;;;;;;;6.79;100.00;99855.31;182732;1236;46139;-83
2024/03/05 02:36:13;;;;;;;73.10;46.70;;;;;;;6.79;100.00;99858.67;182691;1238;46022;-84
2024/03/05 02:40:15;;;;;;;72.20;46.20;;;;;;;6.78;100.00;99857.34;183127;1239;46076;-84
2024/03/05 02:44:17;;;;;;;90.00;42.50;;;;;;;6.79;100.00;99863.79;183051;1235;58007;-84
2024/03/05 02:48:19;;;;;;;76.80;48.90;;;;;;;6.78;100.00;99860.71;183086;1235;45973;-84
2024/03/05 02:52:21;;;;;;;67.40;41.20;;;;;;;6.78;100.00;99863.87;182774;1236;46091;-85
2024/03/05 02:56:23;;;;;;;76.60;50.10;;;;;;;6.78;100.00;99866.16;183044;1235;46088;-85
2024/03/05 03:00:25;;;;;;;67.70;46.10;;;;;;;6.77;100.00;99868.15;182678;1236;45949;-84
2024/03/05 03:04:27;;;;;;;75.90;45.20;;;;;;;6.76;100.00;99871.92;182985;1239;59634;-84
2024/03/05 03:08:29;;;;;;;68.00;46.10;;;;;;;6.75;100.00;99876.75;182889;1235;46109;-84
2024/03/05 03:12:31;;;;;;;77.70;45.10;;;;;;;6.76;100.00;99877.58;182368;1235;46121;-83
2024/03/05 03:16:33;;;;;;;68.00;41.10;;;;;;;6.74;100.00;99879.87;182725;1235;43987;-83
2024/03/05 03:20:35;;;;;;;64.30;42.30;;;;;;;6.74;100.00;99880.38;182542;1235;45097;-84
2024/03/05 03:24:37;;;;;;;78.60;45.80;;;;;;;6.75;100.00;99879.63;182531;1239;58058;-84
2024/03/05 03:28:39;;;;;;;74.30;41.20;;;;;;;6.77;100.00;99879.48;182372;1235;46020;-84
2024/03/05 03:32:41;;;;;;;71.80;44.90;;;;;;;6.74;100.00;99882.68;182927;1235;46098;-84
2024/03/05 03:36:44;;;;;;;71.10;43.50;;;;;;;6.76;100.00;99885.57;182649;1235;45976;-82
2024/03/05 03:40:46;;;;;;;80.00;46.00;;;;;;;6.76;100.00;99885.33;182375;1235;46123;-84
2024/03/05 03:44:47;;;;;;;62.90;43.20;;;;;;;6.79;100.00;99889.16;182616;1235;57907;-84
2024/03/05 03:48:49;;;;;;;80.10;42.50;;;;;;;6.80;100.00;99889.45;182596;1239;46073;-84
2024/03/05 03:52:51;;;;;;;78.20;43.40;;;;;;;6.76;100.00;99890.14;182379;1236;46030;-84
2024/03/05 03:56:53;;;;;;;64.30;39.00;;;;;;;6.74;100.00;99894.14;182070;1235;46040;-84
2024/03/05 04:00:55;;;;;;;51.10;33.70;;;;;;;6.70;100.00;99896.19;182694;1235;46223;-86
2024/03/05 04:04:57;;;;;;;67.80;40.60;;;;;;;6.66;100.00;99899.08;182882;1236;58551;-82
2024/03/05 04:08:59;;;;;;;58.30;38.20;;;;;;;6.59;100.00;99902.90;182516;1235;46031;-83
2024/03/05 04:13:01;;;;;;;57.40;37.60;;;;;;;6.54;100.00;99904.34;182066;1237;46057;-84
2024/03/05 04:17:04;;;;;;;52.60;35.60;;;;;;;6.50;100.00;99907.27;182330;1235;46132;-84
2024/03/05 04:21:06;;;;;;;50.20;37.40;;;;;;;6.46;100.00;99907.36;182215;1235;45989;-85
2024/03/05 04:25:08;;;;;;;58.70;37.20;;;;;;;6.39;100.00;99909.22;182745;1239;58388;-84
2024/03/05 04:29:16;;;;;;;69.00;40.00;;;;;;;6.35;100.00;99907.44;182525;1237;46792;-82
2024/03/05 04:33:20;;;;;;;58.70;39.10;;;;;;;6.31;100.00;99913.85;183200;1235;44108;-84
2024/03/05 04:37:22;;;;;;;61.30;37.10;;;;;;;6.25;100.00;99917.82;182607;1235;46190;-81
2024/03/05 04:41:24;;;;;;;59.40;35.60;;;;;;;6.23;100.00;99921.13;182769;1237;44502;-83
2024/03/05 04:45:26;;;;;;;65.90;38.00;;;;;;;6.21;100.00;99920.40;185014;1236;59235;-85
2024/03/05 04:49:28;;;;;;;52.90;33.60;;;;;;;6.17;100.00;99918.70;183123;1237;46089;-84
2024/03/05 04:53:30;;;;;;;49.80;34.00;;;;;;;6.17;100.00;99921.38;183331;1235;46036;-83
2024/03/05 04:57:32;;;;;;;54.10;36.20;;;;;;;6.19;100.00;99925.81;182478;1235;46029;-84
2024/03/05 05:01:34;;;;;;;56.60;35.00;;;;;;;6.21;100.00;99926.73;182852;1235;46165;-84
2024/03/05 05:05:36;;;;;;;44.20;29.90;;;;;;;6.19;100.00;99922.45;182209;1235;59472;-83
2024/03/05 05:09:39;;;;;;;51.80;33.10;;;;;;;6.18;100.00;99921.09;182420;1236;46040;-84
2024/03/05 05:13:41;;;;;;;44.60;29.70;;;;;;;6.18;100.00;99921.98;182371;1235;45980;-84
2024/03/05 05:17:46;;;;;;;48.20;31.20;;;;;;;6.20;100.00;99921.70;181959;1238;46071;-83
2024/03/05 05:21:48;;;;;;;50.50;34.90;;;;;;;6.16;100.00;99922.46;182169;1235;45974;-84
2024/03/05 05:25:50;;;;;;;45.40;32.70;;;;;;;6.13;100.00;99924.60;182259;1236;59620;-83
2024/03/05 05:29:52;;;;;;;55.10;35.70;;;;;;;6.19;100.00;99923.50;182941;1235;46074;-84
2024/03/05 05:34:03;;;;;;;44.70;30.50;;;;;;;6.23;100.00;99920.06;183105;1235;43991;-83
2024/03/05 05:38:08;;;;;;;51.10;32.20;;;;;;;6.26;100.00;99926.15;182681;1235;46084;-83
2024/03/05 05:42:13;;;;;;;54.10;36.80;;;;;;;6.29;100.00;99927.92;183187;1235;44443;-83
2024/03/05 05:46:16;;;;;;;45.30;30.00;;;;;;;6.31;100.00;99930.27;183779;1235;59249;-84
2024/03/05 05:50:18;;;;;;;48.50;31.80;;;;;;;6.30;100.00;99931.52;184175;1235;44560;-84
2024/03/05 05:54:20;;;;;;;45.50;32.80;;;;;;;6.36;100.00;99939.61;184906;1235;46117;-83
2024/03/05 05:58:25;;;;;;;43.50;29.60;;;;;;;6.40;100.00;99940.17;183712;1236;46002;-82
2024/03/05 06:02:27;;;;;;;50.70;32.00;;;;;;;6.46;100.00;99945.80;182280;1238;46127;-82
2024/03/05 06:06:29;;;;;;;49.20;32.00;;;;;;;6.49;100.00;99951.16;182656;1236;60362;-84
2024/03/05 06:10:31;;;;;;;49.50;33.40;;;;;;;6.55;100.00;99953.29;182666;1235;46057;-83
2024/03/05 06:14:33;;;;;;;52.50;30.80;;;;;;;6.54;100.00;99960.34;183235;1235;46134;-83
2024/03/05 06:18:36;;;;;;;45.20;30.80;;;;;;;6.59;100.00;99969.16;183208;1239;46096;-84
2024/03/05 06:22:43;;;;;;;46.80;30.60;;;;;;;6.64;100.00;99963.37;183539;1235;46082;-84
2024/03/05 06:26:45;;;;;;;46.50;29.60;;;;;;;6.67;100.00;99966.34;182481;1235;59350;-84
2024/03/05 06:30:50;;;;;;;45.90;29.40;;;;;;;6.70;100.00;99972.29;182753;1239;46125;-83
2024/03/05 06:34:54;;;;;;;41.40;28.90;;;;;;;6.72;100.00;99972.86;182212;1235;44624;-83
2024/03/05 06:38:59;;;;;;;50.70;30.50;;;;;;;6.73;100.00;99977.20;182760;1235;46086;-82
2024/03/05 06:43:04;;;;;;;41.80;27.30;;;;;;;6.74;100.00;99979.93;182210;1235;46071;-84
2024/03/05 06:47:08;;;;;;;45.00;28.40;;;;;;;6.77;100.00;99980.45;182056;1235;58487;-83
2024/03/05 06:51:26;;;;;;;40.70;26.50;;;;;;;6.77;100.00;99981.70;183154;1236;46566;-83
2024/03/05 06:59:49;;;;;;;45.80;28.80;;;;;;;6.82;100.00;99986.80;182946;1235;46007;-82
2024/03/05 07:03:51;;;;;;;45.50;30.10;;;;;;;6.85;100.00;99986.40;182358;1235;45980;-83
2024/03/05 07:07:53;;;;;;;43.40;28.10;;;;;;;6.90;100.00;99990.41;182126;1235;57591;-81
2024/03/05 07:11:57;;;;;;;43.70;31.70;;;;;;;6.99;100.00;99994.41;182261;1235;46103;-84
2024/03/05 07:15:58;;;;;;;43.50;30.00;;;;;;;7.07;100.00;99997.58;183336;1235;45947;-83
2024/03/05 07:20:03;;;;;;;44.80;28.50;;;;;;;7.14;100.00;100006.20;182646;1239;46092;-81
2024/03/05 07:24:05;;;;;;;44.70;29.20;;;;;;;7.22;100.00;100005.06;182307;1235;46218;-84
2024/03/05 07:28:10;;;;;;;39.20;26.80;;;;;;;7.31;100.00;100004.42;182614;1235;59045;-82
2024/03/05 07:32:15;;;;;;;43.10;28.60;;;;;;;7.45;100.00;100002.61;182404;1239;46015;-84
2024/03/05 07:36:17;;;;;;;46.10;27.10;;;;;;;7.61;100.00;100007.95;182720;1239;46128;-83
2024/03/05 07:40:22;;;;;;;48.60;31.30;;;;;;;7.72;100.00;100010.32;182503;1235;46723;-81
2024/03/05 07:44:24;;;;;;;39.90;27.60;;;;;;;7.82;100.00;100005.84;182125;1239;45971;-83
2024/03/05 07:48:26;;;;;;;45.50;29.80;;;;;;;7.97;100.00;100004.58;182814;1235;57998;-83
2024/03/05 07:52:27;;;;;;;50.40;31.40;;;;;;;8.08;100.00;100003.88;182877;1235;44551;-84
2024/03/05 07:56:29;;;;;;;49.60;31.00;;;;;;;8.18;100.00;100008.29;182346;1235;45929;-81
2024/03/05 08:00:31;;;;;;;54.80;32.30;;;;;;;8.29;100.00;100008.89;182381;1235;46106;-84
2024/03/05 08:04:33;;;;;;;44.40;29.20;;;;;;;8.34;100.00;100008.88;183433;1237;46024;-83
2024/03/05 08:08:35;;;;;;;47.50;30.30;;;;;;;8.44;100.00;100008.94;182989;1236;59973;-84
2024/03/05 08:12:39;;;;;;;40.30;28.20;;;;;;;8.50;100.00;100012.95;182112;1235;45970;-84
2024/03/05 08:16:41;;;;;;;42.20;29.90;;;;;;;8.56;100.00;100014.31;183182;1234;46145;-82
2024/03/05 08:20:43;;;;;;;47.00;30.40;;;;;;;8.58;100.00;100020.48;182254;1234;45973;-83
2024/03/05 08:24:45;;;;;;;43.10;29.40;;;;;;;8.59;99.92;100021.44;182822;1239;46431;-84
2024/03/05 08:28:46;;;;;;;44.30;29.50;;;;;;;8.65;99.94;100017.68;182239;1239;57931;-84
2024/03/05 08:32:51;;;;;;;41.80;27.20;;;;;;;8.72;99.13;100019.77;182709;1235;46101;-84
2024/03/05 08:36:53;;;;;;;41.90;28.80;;;;;;;8.76;98.03;100016.51;183349;1235;46096;-82
2024/03/05 08:40:55;;;;;;;54.70;32.70;;;;;;;8.74;97.82;100020.17;182183;1239;46088;-84
2024/03/05 08:44:57;;;;;;;44.10;30.80;;;;;;;8.77;96.88;100019.36;182354;1239;46008;-83
2024/03/05 08:48:59;;;;;;;43.40;27.40;;;;;;;8.86;97.28;100022.00;182752;1236;58162;-84
2024/03/05 08:53:02;;;;;;;36.20;27.20;;;;;;;8.92;95.39;100023.36;182704;1235;45986;-83
2024/03/05 08:57:05;;;;;;;51.90;32.20;;;;;;;8.94;95.90;100021.55;182376;1235;46005;-83
2024/03/05 09:01:10;;;;;;;44.60;26.90;;;;;;;8.97;94.86;100021.66;182164;1239;46018;-83
2024/03/05 09:05:12;;;;;;;49.80;31.10;;;;;;;8.98;93.76;100021.38;182801;1239;46027;-83
2024/03/05 09:09:15;;;;;;;42.20;28.40;;;;;;;9.03;93.76;100021.98;182659;1235;60328;-83
2024/03/05 09:13:17;;;;;;;52.60;32.20;;;;;;;9.09;94.11;100017.41;183067;1237;45890;-84
2024/03/05 09:17:19;;;;;;;47.90;33.30;;;;;;;9.20;94.70;100017.20;184244;1235;44041;-84
2024/03/05 09:21:21;;;;;;;47.20;28.80;;;;;;;9.34;92.83;100013.29;185718;1234;43844;-84
2024/03/05 09:25:23;;;;;;;46.70;31.20;;;;;;;9.42;90.60;100014.09;185663;1235;44112;-83
2024/03/05 09:29:25;;;;;;;41.70;26.30;;;;;;;9.47;89.65;100014.91;183716;1235;58051;-84
2024/03/05 09:33:29;;;;;;;54.00;32.30;;;;;;;9.37;87.62;100016.92;182225;1239;44545;-84
2024/03/05 09:37:31;;;;;;;46.30;31.20;;;;;;;9.28;89.36;100017.46;182586;1235;46035;-82
2024/03/05 09:41:40;;;;;;;43.30;31.30;;;;;;;9.21;88.93;100019.79;183343;1235;44431;-84
2024/03/05 09:45:47;;;;;;;51.30;31.00;;;;;;;9.05;90.42;100025.56;183427;1235;46095;-83
2024/03/05 09:49:51;;;;;;;40.90;29.00;;;;;;;8.94;91.88;100029.20;182622;1235;57986;-83
2024/03/05 09:53:56;;;;;;;42.20;30.90;;;;;;;8.82;92.94;100032.04;182932;1235;46005;-84
2024/03/05 09:58:02;;;;;;;50.50;26.90;;;;;;;8.72;93.19;100037.64;182206;1238;46089;-82
2024/03/05 10:02:08;;;;;;;48.40;31.70;;;;;;;8.62;93.08;100042.61;183013;1239;46218;-82
2024/03/05 10:06:11;;;;;;;46.20;29.00;;;;;;;8.50;92.32;100051.52;182720;1239;46004;-83
2024/03/05 10:10:18;;;;;;;42.40;28.90;;;;;;;8.44;93.70;100058.06;182116;1235;58069;-84
2024/03/05 10:14:22;;;;;;;48.70;30.80;;;;;;;8.40;94.47;100064.40;182432;1235;46181;-83
2024/03/05 10:18:34;;;;;;;45.90;30.40;;;;;;;8.40;94.55;100064.73;182056;1239;45986;-82
2024/03/05 10:22:36;;;;;;;53.50;33.40;;;;;;;8.42;95.48;100068.80;182980;1239;45983;-83
2024/03/05 10:26:38;;;;;;;47.60;32.00;;;;;;;8.43;96.59;100072.33;182517;1235;46088;-83
2024/03/05 10:30:42;;;;;;;46.90;31.00;;;;;;;8.45;95.77;100073.59;183264;1235;59239;-84
2024/03/05 10:34:45;;;;;;;42.70;30.00;;;;;;;8.39;94.42;100077.52;182589;1235;46197;-83
2024/03/05 10:38:48;;;;;;;50.60;31.00;;;;;;;8.37;93.88;100079.45;182753;1235;45986;-83
2024/03/05 10:42:55;;;;;;;52.10;31.40;;;;;;;8.36;91.88;100077.04;182389;1235;46076;-84
2024/03/05 10:46:57;;;;;;;;;;;;;;;8.35;92.58;100080.53;183357;1235;46102;-82
2024/03/05 10:51:02;;;;;;;56.00;29.30;;;;;;;8.33;93.30;100087.20;183177;1237;58892;-83
2024/03/05 10:55:09;;;;;;;42.10;26.40;;;;;;;8.26;92.91;100092.85;183911;1235;46219;-83
2024/03/05 11:03:34;;;;;;;41.70;25.80;;;;;;;8.19;94.22;100092.31;182906;1235;45967;-82
2024/03/05 11:07:36;;;;;;;34.90;24.40;;;;;;;8.14;92.71;100098.46;182901;1234;44789;-84
2024/03/05 11:11:43;;;;;;;38.40;23.40;;;;;;;8.15;93.64;100099.67;182398;1236;57598;-84
2024/03/05 11:15:47;;;;;;;34.60;25.00;;;;;;;8.17;93.24;100099.17;182541;1239;46120;-84
2024/03/05 11:19:48;;;;;;;40.30;24.90;;;;;;;8.14;93.30;100096.05;182941;1238;46117;-82
2024/03/05 11:23:57;;;;;;;39.80;23.10;;;;;;;8.09;92.63;100100.83;182476;1235;46011;-84
2024/03/05 11:27:59;;;;;;;46.40;24.90;;;;;;;8.02;92.63;100099.75;183458;1235;184344;-84
2024/03/05 11:32:03;;;;;;;38.90;26.00;;;;;;;7.97;93.29;100098.66;182326;1235;57080;-84
2024/03/05 11:36:22;;;;;;;34.70;23.80;;;;;;;7.96;95.09;100100.86;183404;1236;45976;-84
2024/03/05 11:40:32;;;;;;;36.40;24.50;;;;;;;7.94;93.76;100101.40;182604;1235;45973;-84
2024/03/05 11:44:41;;;;;;;39.20;26.20;;;;;;;7.91;92.97;100102.31;183768;1234;46070;-83
2024/03/05 11:48:43;;;;;;;31.40;23.10;;;;;;;7.90;92.38;100104.13;182424;1235;46012;-84
2024/03/05 11:52:45;;;;;;;39.70;22.50;;;;;;;7.91;92.31;100107.27;183316;1238;60395;-83
2024/03/05 11:57:00;;;;;;;41.10;24.90;;;;;;;7.93;92.49;100106.61;183025;1235;46076;-84
2024/03/05 12:01:02;;;;;;;37.40;24.10;;;;;;;7.96;91.99;100108.33;183135;1237;44772;-84
2024/03/05 12:05:04;;;;;;;38.50;24.80;;;;;;;8.02;93.34;100112.07;182838;1236;46085;-84
2024/03/05 12:09:18;;;;;;;39.20;25.70;;;;;;;8.07;91.89;100115.30;183075;1235;44176;-84
2024/03/05 12:13:20;;;;;;;40.60;26.30;;;;;;;8.08;91.34;100118.37;184833;1235;59191;-83
2024/03/05 12:17:24;;;;;;;41.60;26.60;;;;;;;8.12;91.76;100122.15;182438;1238;46092;-83
2024/03/05 12:21:28;;;;;;;34.40;23.40;;;;;;;8.15;91.88;100121.02;182402;1239;46082;-83
2024/03/05 12:25:33;;;;;;;40.30;26.00;;;;;;;8.16;93.09;100122.91;182663;1235;46139;-82
2024/03/05 12:29:37;;;;;;;38.00;26.90;;;;;;;8.18;92.27;100125.07;182451;1239;46163;-84
2024/03/05 12:33:39;;;;;;;40.90;27.80;;;;;;;8.25;91.99;100124.71;182715;1236;58188;-84
2024/03/05 12:37:41;;;;;;;43.00;27.60;;;;;;;8.26;93.17;100127.27;182023;1234;46193;-84
2024/03/05 12:41:44;;;;;;;38.20;25.30;;;;;;;8.27;93.29;100130.73;182141;1235;45923;-84
2024/03/05 12:45:48;;;;;;;46.20;28.70;;;;;;;8.29;92.61;100131.70;182378;1235;46045;-84
2024/03/05 12:49:50;;;;;;;37.90;27.20;;;;;;;8.24;93.71;100133.64;182895;1238;46198;-83
2024/03/05 12:54:01;;;;;;;42.30;27.70;;;;;;;8.22;93.52;100135.20;182871;1236;58978;-82
2024/03/05 12:58:11;;;;;;;40.80;28.20;;;;;;;8.23;92.75;100135.68;182637;1236;46089;-84
2024/03/05 13:02:13;;;;;;;37.90;26.30;;;;;;;8.18;92.20;100134.08;182227;1237;46105;-84
2024/03/05 13:06:15;;;;;;;44.00;27.90;;;;;;;8.16;92.28;100129.07;182989;1236;46100;-85
2024/03/05 13:10:17;;;;;;;34.10;23.40;;;;;;;8.14;91.54;100131.84;182898;1239;46100;-84
2024/03/05 13:14:19;;;;;;;40.40;26.70;;;;;;;8.17;90.91;100137.52;182737;1235;59383;-83
2024/03/05 13:18:25;;;;;;;41.90;29.20;;;;;;;8.22;90.14;100139.63;182561;1239;46026;-85
2024/03/05 13:22:27;;;;;;;46.90;27.80;;;;;;;8.23;90.26;100137.80;182818;1239;46067;-85
2024/03/05 13:26:29;;;;;;;42.50;27.30;;;;;;;8.23;90.83;100139.02;182693;1236;46128;-84
2024/03/05 13:30:31;;;;;;;40.80;26.40;;;;;;;8.30;90.51;100147.17;182517;1235;46063;-83
2024/03/05 13:34:33;;;;;;;40.60;24.60;;;;;;;8.32;90.42;100149.84;182303;1235;59667;-85
2024/03/05 13:38:35;;;;;;;40.70;27.00;;;;;;;8.38;88.58;100153.29;183561;1235;44287;-84
2024/03/05 13:42:38;;;;;;;34.00;21.40;;;;;;;8.42;87.78;100153.52;183374;1238;46087;-83
2024/03/05 13:46:40;;;;;;;38.30;23.60;;;;;;;8.47;86.98;100154.00;182986;1239;46168;-84
2024/03/05 13:50:51;;;;;;;30.80;23.60;;;;;;;8.57;86.80;100157.01;183044;1239;46061;-84
2024/03/05 13:54:53;;;;;;;34.10;25.20;;;;;;;8.76;85.78;100154.84;182150;1235;59102;-85
2024/03/05 13:58:57;;;;;;;44.60;28.00;;;;;;;8.99;84.22;100155.27;184123;1236;46052;-84
2024/03/05 14:02:59;;;;;;;37.10;24.40;;;;;;;9.19;83.70;100152.67;183577;1235;46087;-84
2024/03/05 14:07:05;;;;;;;38.70;24.70;;;;;;;9.28;80.81;100156.77;182639;1235;46009;-83
2024/03/05 14:11:07;;;;;;;37.60;23.90;;;;;;;9.36;80.83;100155.06;183872;1235;46084;-83
2024/03/05 14:15:19;;;;;;;37.30;24.50;;;;;;;9.43;80.81;100154.71;183313;1239;59409;-83
2024/03/05 14:19:22;;;;;;;36.20;24.60;;;;;;;9.48;81.28;100150.91;183886;1236;46047;-85
2024/03/05 14:23:24;;;;;;;38.20;23.50;;;;;;;9.49;80.55;100152.77;182978;1235;46138;-82
2024/03/05 14:27:27;;;;;;;35.30;22.20;;;;;;;9.49;79.17;100157.06;184301;1239;44685;-85
2024/03/05 14:31:31;;;;;;;37.50;26.90;;;;;;;9.46;80.08;100152.90;182850;1239;45986;-86
2024/03/05 14:35:36;;;;;;;40.50;28.00;;;;;;;9.36;78.44;100153.09;183399;1237;59480;-85
2024/03/05 14:39:38;;;;;;;36.40;25.90;;;;;;;9.33;79.37;100161.98;183743;1236;46000;-82
2024/03/05 14:43:40;;;;;;;38.10;24.90;;;;;;;9.38;79.00;100165.35;182903;1236;44143;-85
2024/03/05 14:47:49;;;;;;;35.20;22.80;;;;;;;9.44;79.26;100164.34;182998;1236;46038;-85
2024/03/05 14:51:51;;;;;;;36.90;24.10;;;;;;;9.47;79.22;100172.93;183753;1238;46005;-86
2024/03/05 14:55:53;;;;;;;37.60;24.50;;;;;;;9.49;79.88;100178.96;183885;1238;57917;-84
2024/03/05 14:59:55;;;;;;;34.10;23.20;;;;;;;9.49;78.75;100176.52;183965;1236;45854;-86
2024/03/05 15:03:57;;;;;;;38.90;25.70;;;;;;;9.46;78.86;100182.41;184773;1239;43947;-85
2024/03/05 15:07:59;;;;;;;36.40;24.20;;;;;;;9.46;79.40;100184.23;184101;1239;45842;-83
2024/03/05 15:12:03;;;;;;;38.40;26.90;;;;;;;9.56;79.05;100185.16;184785;1239;46004;-84
2024/03/05 15:16:10;;;;;;;43.40;27.80;;;;;;;9.64;78.53;100186.70;182719;1235;58204;-83
2024/03/05 15:20:15;;;;;;;38.00;24.60;;;;;;;9.57;78.00;100191.65;183973;1235;45090;-84
2024/03/05 15:24:17;;;;;;;36.30;25.40;;;;;;;9.46;77.53;100200.80;183359;1239;46019;-84
2024/03/05 15:28:19;;;;;;;43.40;29.90;;;;;;;9.34;77.89;100207.08;184465;1239;44259;-84
2024/03/05 15:32:21;;;;;;;51.30;26.00;;;;;;;9.21;79.26;100212.86;183224;1237;45945;-83
2024/03/05 15:36:23;;;;;;;33.90;22.80;;;;;;;9.09;80.18;100220.84;183487;1235;59407;-84
2024/03/05 15:40:25;;;;;;;42.20;27.00;;;;;;;9.01;81.17;100230.45;183036;1236;46111;-86
2024/03/05 15:44:29;;;;;;;41.00;26.30;;;;;;;8.95;80.77;100234.76;184961;1235;44224;-83
2024/03/05 15:48:31;;;;;;;32.40;21.20;;;;;;;8.91;80.70;100237.90;185524;1239;44231;-86
2024/03/05 15:52:33;;;;;;;46.50;30.30;;;;;;;8.91;80.60;100241.50;184242;1236;43954;-86
2024/03/05 15:56:45;;;;;;;42.80;26.40;;;;;;;8.91;80.96;100245.21;183999;1235;59706;-85
2024/03/05 16:00:47;;;;;;;37.60;25.00;;;;;;;8.87;80.74;100245.52;182855;1236;45983;-83
2024/03/05 16:04:50;;;;;;;50.00;25.90;;;;;;;8.80;81.05;100249.90;184331;1235;46103;-86
2024/03/05 16:09:19;;;;;;;41.50;29.20;;;;;;;8.77;81.57;100252.08;184016;1235;45961;-84
2024/03/05 16:13:21;;;;;;;31.10;25.40;;;;;;;8.74;82.29;100255.65;183716;1235;44744;-85
2024/03/05 16:17:24;;;;;;;41.20;24.60;;;;;;;8.68;82.62;100261.87;183426;1237;59181;-85
2024/03/05 16:21:27;;;;;;;36.10;22.90;;;;;;;8.60;83.15;100261.77;183433;1239;46126;-86
2024/03/05 16:25:29;;;;;;;37.70;24.30;;;;;;;8.52;83.29;100263.27;182942;1235;45922;-85
2024/03/05 16:29:31;;;;;;;30.70;22.10;;;;;;;8.44;83.05;100272.26;183938;1239;46021;-86
2024/03/05 16:33:33;;;;;;;38.50;26.00;;;;;;;8.41;84.13;100274.61;184275;1235;46032;-83
2024/03/05 16:37:35;;;;;;;41.40;25.50;;;;;;;8.37;84.54;100277.23;183385;1238;57922;-87
2024/03/05 16:41:38;;;;;;;38.00;26.10;;;;;;;8.34;84.95;100281.70;184373;1235;47409;-84
2024/03/05 16:45:40;;;;;;;37.50;25.10;;;;;;;8.31;85.00;100288.40;184185;1239;46208;-83
2024/03/05 16:49:42;;;;;;;41.00;25.40;;;;;;;8.27;84.64;100296.27;184711;1235;45953;-88
2024/03/05 16:53:43;;;;;;;37.20;24.20;;;;;;;8.26;84.79;100295.48;185197;1239;43965;-85
2024/03/05 16:57:45;;;;;;;56.10;29.00;;;;;;;8.25;85.02;100300.48;185194;1239;59116;-84
2024/03/05 17:01:47;;;;;;;46.00;27.90;;;;;;;8.22;85.59;100304.08;184419;1240;45985;-83
2024/03/05 17:05:53;;;;;;;30.60;24.50;;;;;;;8.18;86.11;100311.45;183607;1238;46085;-85
2024/03/05 17:09:57;;;;;;;39.50;27.20;;;;;;;8.14;87.40;100316.23;184537;1235;44350;-83
2024/03/05 17:14:01;;;;;;;37.70;24.40;;;;;;;8.11;89.12;100316.33;184137;1240;46100;-83
2024/03/05 17:18:07;;;;;;;43.50;25.80;;;;;;;8.06;91.11;100323.04;182972;1238;58118;-86
2024/03/05 17:22:09;;;;;;;;;;;;;;;8.02;92.30;100330.92;183068;1239;46081;-87
2024/03/05 17:26:13;;;;;;;65.20;33.00;;;;;;;8.00;92.54;100338.97;183868;1237;45725;-87
2024/03/05 17:30:16;;;;;;;47.50;31.20;;;;;;;8.01;92.75;100342.83;183204;1236;45883;-86
2024/03/05 17:34:18;;;;;;;72.00;42.10;;;;;;;7.99;92.94;100346.30;183441;1235;46192;-80
2024/03/05 17:38:20;;;;;;;51.50;26.50;;;;;;;7.96;92.70;100346.65;182926;1234;59195;-85
2024/03/05 17:42:22;;;;;;;29.30;21.20;;;;;;;7.95;92.09;100345.89;183117;1235;46068;-81
2024/03/05 17:46:24;;;;;;;38.00;23.20;;;;;;;7.91;91.47;100344.41;183791;1235;46046;-83
2024/03/05 17:50:26;;;;;;;32.10;21.30;;;;;;;7.82;91.06;100344.46;183475;1235;45976;-84
2024/03/05 17:54:28;;;;;;;34.00;23.30;;;;;;;7.74;92.31;100339.91;183010;1237;45980;-82
2024/03/05 17:58:32;;;;;;;40.90;24.90;;;;;;;7.64;92.89;100343.73;182938;1239;58508;-85
2024/03/05 18:02:35;;;;;;;30.20;22.60;;;;;;;7.61;92.71;100350.02;183105;1236;46075;-85
2024/03/05 18:06:37;;;;;;;44.10;23.00;;;;;;;7.58;93.07;100358.13;184050;1239;45741;-83
2024/03/05 18:10:39;;;;;;;32.10;22.30;;;;;;;7.53;94.12;100361.12;182959;1237;46223;-83
2024/03/05 18:14:42;;;;;;;34.90;22.50;;;;;;;7.47;94.92;100363.96;183949;1239;46077;-86
2024/03/05 18:18:44;;;;;;;37.20;23.50;;;;;;;7.47;95.39;100367.66;183286;1235;57984;-83
2024/03/05 18:22:47;;;;;;;32.80;22.50;;;;;;;7.48;95.16;100366.52;183950;1235;45154;-87
2024/03/05 18:26:49;;;;;;;34.60;21.70;;;;;;;7.48;95.57;100363.92;183395;1235;45876;-89
2024/03/05 18:30:51;;;;;;;32.50;22.20;;;;;;;7.47;95.89;100373.70;183452;1239;44105;-89
2024/03/05 18:34:53;;;;;;;33.70;21.70;;;;;;;7.47;96.10;100376.68;184331;1235;45932;-87